createdAt,value
2018-02-05T00:00:33.428Z,28.80
2018-02-05T00:01:33.445Z,28.10
2018-02-05T00:02:33.457Z,28.00
2018-02-05T00:03:33.470Z,28.90
2018-02-05T00:04:33.484Z,28.60
2018-02-05T00:05:33.502Z,28.10
2018-02-05T00:06:33.614Z,28.30
2018-02-05T00:07:33.526Z,30.60
2018-02-05T00:08:33.540Z,28.80
2018-02-05T00:09:33.555Z,28.10
2018-02-05T00:10:33.569Z,28.40
2018-02-05T00:11:33.582Z,28.90
2018-02-05T00:12:33.596Z,29.20
2018-02-05T00:13:33.611Z,29.60
2018-02-05T00:14:33.624Z,27.50
2018-02-05T00:15:33.640Z,28.30
2018-02-05T00:16:33.652Z,28.00
2018-02-05T00:17:33.667Z,27.30
2018-02-05T00:18:33.680Z,26.20
2018-02-05T00:19:33.693Z,27.70
2018-02-05T00:20:33.708Z,29.40
2018-02-05T00:21:33.723Z,29.40
2018-02-05T00:22:33.737Z,28.30
2018-02-05T00:23:33.751Z,30.20
2018-02-05T00:24:33.764Z,28.50
2018-02-05T00:25:33.778Z,26.30
2018-02-05T00:26:33.792Z,28.70
2018-02-05T00:27:33.806Z,27.70
2018-02-05T00:28:33.970Z,27.80
2018-02-05T00:29:33.835Z,27.10
2018-02-05T00:30:33.849Z,27.00
2018-02-05T00:31:33.862Z,26.20
2018-02-05T00:32:33.875Z,27.40
2018-02-05T00:33:33.890Z,26.30
2018-02-05T00:34:33.904Z,26.60
2018-02-05T00:35:33.967Z,26.50
2018-02-05T00:36:33.931Z,27.10
2018-02-05T00:37:33.946Z,27.20
2018-02-05T00:38:33.960Z,28.40
2018-02-05T00:39:33.973Z,27.10
2018-02-05T00:40:33.987Z,27.00
2018-02-05T00:41:34.002Z,28.10
2018-02-05T00:42:34.015Z,26.90
2018-02-05T00:43:34.028Z,28.20
2018-02-05T00:44:34.043Z,28.00
2018-02-05T00:45:34.057Z,28.00
2018-02-05T00:46:34.071Z,27.30
2018-02-05T00:47:34.084Z,29.00
2018-02-05T00:48:34.098Z,26.10
2018-02-05T00:49:34.114Z,28.60
2018-02-05T00:50:34.127Z,26.10
2018-02-05T00:51:34.140Z,27.20
2018-02-05T00:52:34.154Z,26.40
2018-02-05T00:53:34.168Z,27.90
2018-02-05T00:54:34.187Z,28.30
2018-02-05T00:55:34.195Z,27.40
2018-02-05T00:56:34.209Z,27.90
2018-02-05T00:57:34.223Z,26.70
2018-02-05T00:58:34.339Z,27.70
2018-02-05T00:59:34.251Z,27.40
2018-02-05T01:00:34.265Z,27.80
2018-02-05T01:01:34.280Z,28.60
2018-02-05T01:02:34.293Z,27.10
2018-02-05T01:03:34.306Z,29.40
2018-02-05T01:04:34.320Z,27.10
2018-02-05T01:05:34.335Z,29.00
2018-02-05T01:06:34.349Z,28.40
2018-02-05T01:07:34.361Z,29.80
2018-02-05T01:08:34.376Z,28.40
2018-02-05T01:09:34.390Z,28.20
2018-02-05T01:10:34.404Z,28.70
2018-02-05T01:11:34.417Z,28.90
2018-02-05T01:12:34.430Z,26.60
2018-02-05T01:13:34.444Z,28.20
2018-02-05T01:14:34.558Z,28.40
2018-02-05T01:15:34.471Z,28.90
2018-02-05T01:16:34.486Z,28.20
2018-02-05T01:17:34.499Z,28.30
2018-02-05T01:18:34.513Z,27.60
2018-02-05T01:19:34.526Z,28.00
2018-02-05T01:20:34.543Z,29.10
2018-02-05T01:21:34.554Z,29.40
2018-02-05T01:22:34.568Z,28.00
2018-02-05T01:23:34.631Z,30.30
2018-02-05T01:24:34.595Z,29.20
2018-02-05T01:25:34.610Z,28.20
2018-02-05T01:26:34.622Z,27.30
2018-02-05T01:27:34.636Z,31.30
2018-02-05T01:28:34.649Z,29.00
2018-02-05T01:29:34.665Z,29.10
2018-02-05T01:30:34.679Z,27.90
2018-02-05T01:31:34.689Z,28.50
2018-02-05T01:32:34.704Z,27.20
2018-02-05T01:33:34.718Z,29.40
2018-02-05T01:34:34.731Z,28.20
2018-02-05T01:35:34.751Z,28.40
2018-02-05T01:36:34.758Z,28.90
2018-02-05T01:37:34.772Z,28.40
2018-02-05T01:38:34.786Z,28.80
2018-02-05T01:39:34.799Z,28.30
2018-02-05T01:40:34.812Z,29.30
2018-02-05T01:41:34.826Z,28.00
2018-02-05T01:42:34.840Z,28.10
2018-02-05T01:43:34.858Z,27.50
2018-02-05T01:44:34.867Z,26.80
2018-02-05T01:45:34.881Z,28.20
2018-02-05T01:46:34.894Z,28.80
2018-02-05T01:47:34.908Z,28.00
2018-02-05T01:48:34.921Z,27.40
2018-02-05T01:49:34.935Z,27.80
2018-02-05T01:50:34.949Z,28.10
2018-02-05T01:51:34.962Z,25.40
2018-02-05T01:52:34.976Z,28.10
2018-02-05T01:53:34.991Z,27.40
2018-02-05T01:54:35.003Z,28.80
2018-02-05T01:55:35.017Z,28.60
2018-02-05T01:56:35.031Z,27.50
2018-02-05T01:57:35.044Z,28.20
2018-02-05T01:58:35.058Z,28.60
2018-02-05T01:59:35.071Z,27.20
2018-02-05T02:00:35.185Z,26.20
2018-02-05T02:01:35.099Z,28.60
2018-02-05T02:02:35.112Z,26.90
2018-02-05T02:03:35.126Z,27.70
2018-02-05T02:04:35.139Z,27.80
2018-02-05T02:05:35.153Z,27.90
2018-02-05T02:06:35.167Z,27.00
2018-02-05T02:07:35.180Z,26.10
2018-02-05T02:08:35.193Z,26.60
2018-02-05T02:09:35.206Z,28.10
2018-02-05T02:10:35.222Z,28.50
2018-02-05T02:11:35.234Z,27.20
2018-02-05T02:12:35.248Z,27.40
2018-02-05T02:13:35.261Z,29.10
2018-02-05T02:14:35.276Z,27.70
2018-02-05T02:15:35.288Z,29.00
2018-02-05T02:16:35.302Z,27.40
2018-02-05T02:17:35.316Z,25.40
2018-02-05T02:18:35.330Z,28.40
2018-02-05T02:19:35.343Z,28.10
2018-02-05T02:20:35.357Z,27.70
2018-02-05T02:21:35.370Z,26.30
2018-02-05T02:22:35.384Z,27.10
2018-02-05T02:23:35.397Z,25.60
2018-02-05T02:24:35.411Z,26.90
2018-02-05T02:25:35.425Z,27.00
2018-02-05T02:26:35.439Z,27.00
2018-02-05T02:27:35.452Z,25.80
2018-02-05T02:28:35.466Z,27.50
2018-02-05T02:29:35.479Z,27.80
2018-02-05T02:30:35.493Z,27.20
2018-02-05T02:31:35.506Z,27.20
2018-02-05T02:32:35.521Z,26.50
2018-02-05T02:33:35.534Z,26.50
2018-02-05T02:34:35.548Z,27.50
2018-02-05T02:35:35.562Z,27.10
2018-02-05T02:36:35.575Z,27.00
2018-02-05T02:37:35.589Z,27.30
2018-02-05T02:38:35.603Z,27.60
2018-02-05T02:39:35.615Z,26.90
2018-02-05T02:40:35.629Z,27.00
2018-02-05T02:41:35.643Z,26.20
2018-02-05T02:42:35.656Z,27.00
2018-02-05T02:43:35.670Z,26.50
2018-02-05T02:44:35.683Z,27.70
2018-02-05T02:45:35.697Z,26.80
2018-02-05T02:46:35.711Z,26.40
2018-02-05T02:47:35.723Z,27.00
2018-02-05T02:48:35.738Z,26.60
2018-02-05T02:49:35.752Z,26.80
2018-02-05T02:50:35.765Z,27.40
2018-02-05T02:51:35.778Z,27.40
2018-02-05T02:52:35.793Z,26.60
2018-02-05T02:53:35.806Z,25.90
2018-02-05T02:54:35.820Z,27.50
2018-02-05T02:55:35.832Z,26.80
2018-02-05T02:56:35.846Z,28.40
2018-02-05T02:57:35.859Z,28.00
2018-02-05T02:58:35.872Z,28.60
2018-02-05T02:59:35.886Z,27.10
2018-02-05T03:00:35.899Z,28.60
2018-02-05T03:01:35.914Z,27.00
2018-02-05T03:02:35.926Z,28.40
2018-02-05T03:03:35.939Z,28.90
2018-02-05T03:04:35.953Z,28.80
2018-02-05T03:05:35.967Z,29.00
2018-02-05T03:06:35.979Z,28.00
2018-02-05T03:07:35.993Z,28.10
2018-02-05T03:08:36.007Z,29.90
2018-02-05T03:09:36.021Z,29.00
2018-02-05T03:10:36.034Z,28.00
2018-02-05T03:11:36.047Z,28.20
2018-02-05T03:12:36.061Z,28.40
2018-02-05T03:13:36.074Z,29.30
2018-02-05T03:14:36.089Z,28.50
2018-02-05T03:15:36.100Z,28.00
2018-02-05T03:16:36.114Z,27.40
2018-02-05T03:17:36.128Z,29.40
2018-02-05T03:18:36.141Z,28.40
2018-02-05T03:19:36.154Z,28.60
2018-02-05T03:20:36.171Z,27.80
2018-02-05T03:21:36.182Z,28.40
2018-02-05T03:22:36.195Z,26.50
2018-02-05T03:23:36.208Z,29.20
2018-02-05T03:24:36.222Z,27.90
2018-02-05T03:25:36.286Z,28.30
2018-02-05T03:26:36.250Z,29.10
2018-02-05T03:27:36.262Z,29.70
2018-02-05T03:28:36.276Z,28.40
2018-02-05T03:29:36.290Z,29.20
2018-02-05T03:30:36.308Z,28.80
2018-02-05T03:31:36.316Z,27.80
2018-02-05T03:32:36.329Z,27.70
2018-02-05T03:33:36.343Z,27.80
2018-02-05T03:34:36.356Z,28.20
2018-02-05T03:35:36.369Z,27.60
2018-02-05T03:36:36.383Z,27.90
2018-02-05T03:37:36.397Z,28.20
2018-02-05T03:38:36.410Z,28.00
2018-02-05T03:39:36.422Z,26.20
2018-02-05T03:40:36.436Z,27.40
2018-02-05T03:41:36.450Z,26.60
2018-02-05T03:42:36.464Z,28.80
2018-02-05T03:43:36.476Z,27.90
2018-02-05T03:44:36.490Z,26.10
2018-02-05T03:45:36.503Z,28.20
2018-02-05T03:46:36.517Z,27.20
2018-02-05T03:47:36.529Z,26.60
2018-02-05T03:48:36.543Z,25.40
2018-02-05T03:49:36.557Z,27.60
2018-02-05T03:50:36.570Z,24.10
2018-02-05T03:51:36.582Z,26.20
2018-02-05T03:52:36.600Z,25.60
2018-02-05T03:53:36.610Z,27.10
2018-02-05T03:54:36.623Z,27.00
2018-02-05T03:55:36.636Z,26.10
2018-02-05T03:56:36.701Z,25.50
2018-02-05T03:57:36.663Z,27.80
2018-02-05T03:58:36.679Z,26.80
2018-02-05T03:59:36.690Z,26.70
2018-02-05T04:00:36.703Z,25.70
2018-02-05T04:01:36.716Z,26.60
2018-02-05T04:02:36.730Z,26.10
2018-02-05T04:03:36.743Z,25.30
2018-02-05T04:04:36.757Z,26.10
2018-02-05T04:05:36.773Z,24.10
2018-02-05T04:06:36.784Z,24.30
2018-02-05T04:07:36.797Z,24.80
2018-02-05T04:08:36.811Z,26.00
2018-02-05T04:09:36.825Z,25.40
2018-02-05T04:10:36.838Z,24.40
2018-02-05T04:11:36.851Z,25.10
2018-02-05T04:12:36.865Z,25.90
2018-02-05T04:13:36.879Z,23.10
2018-02-05T04:14:36.892Z,23.70
2018-02-05T04:15:36.905Z,23.90
2018-02-05T04:16:36.920Z,23.60
2018-02-05T04:17:36.933Z,23.00
2018-02-05T04:18:36.955Z,22.60
2018-02-05T04:19:36.960Z,23.60
2018-02-05T04:20:36.974Z,23.60
2018-02-05T04:21:36.988Z,24.00
2018-02-05T04:22:37.002Z,24.30
2018-02-05T04:23:37.014Z,22.70
2018-02-05T04:24:37.029Z,23.70
2018-02-05T04:25:37.043Z,23.80
2018-02-05T04:26:37.257Z,23.50
2018-02-05T04:27:37.071Z,23.60
2018-02-05T04:28:37.085Z,23.20
2018-02-05T04:29:37.198Z,22.70
2018-02-05T04:30:37.112Z,22.40
2018-02-05T04:31:37.277Z,22.40
2018-02-05T04:32:37.140Z,21.90
2018-02-05T04:33:37.153Z,21.00
2018-02-05T04:34:37.166Z,22.40
2018-02-05T04:35:37.180Z,20.90
2018-02-05T04:36:37.194Z,22.10
2018-02-05T04:37:37.213Z,21.60
2018-02-05T04:38:37.222Z,21.40
2018-02-05T04:39:37.236Z,22.10
2018-02-05T04:40:37.249Z,22.90
2018-02-05T04:41:37.263Z,21.80
2018-02-05T04:42:37.278Z,21.00
2018-02-05T04:43:37.290Z,21.20
2018-02-05T04:44:37.305Z,21.10
2018-02-05T04:45:37.318Z,20.80
2018-02-05T04:46:37.333Z,21.40
2018-02-05T04:47:37.345Z,20.90
2018-02-05T04:48:37.360Z,22.30
2018-02-05T04:49:37.374Z,22.50
2018-02-05T04:50:37.388Z,21.30
2018-02-05T04:51:37.400Z,21.10
2018-02-05T04:52:37.466Z,22.00
2018-02-05T04:53:37.429Z,20.70
2018-02-05T04:54:37.444Z,22.30
2018-02-05T04:55:37.457Z,22.10
2018-02-05T04:56:37.472Z,21.90
2018-02-05T04:57:37.484Z,23.20
2018-02-05T04:58:37.505Z,21.60
2018-02-05T04:59:37.512Z,21.20
2018-02-05T05:00:37.526Z,22.40
2018-02-05T05:01:37.540Z,22.60
2018-02-05T05:02:37.554Z,21.80
2018-02-05T05:03:37.568Z,21.70
2018-02-05T05:04:37.582Z,20.90
2018-02-05T05:05:37.596Z,19.40
2018-02-05T05:06:37.610Z,22.40
2018-02-05T05:07:37.623Z,21.60
2018-02-05T05:08:37.637Z,21.70
2018-02-05T05:09:37.650Z,20.90
2018-02-05T05:10:37.666Z,23.10
2018-02-05T05:11:37.679Z,20.90
2018-02-05T05:12:37.692Z,21.60
2018-02-05T05:13:37.857Z,21.50
2018-02-05T05:14:38.021Z,21.80
2018-02-05T05:15:37.734Z,21.40
2018-02-05T05:16:37.748Z,22.50
2018-02-05T05:17:37.762Z,22.00
2018-02-05T05:18:37.784Z,21.90
2018-02-05T05:19:37.790Z,22.40
2018-02-05T05:20:37.804Z,21.50
2018-02-05T05:21:37.822Z,24.30
2018-02-05T05:22:37.832Z,22.70
2018-02-05T05:23:37.845Z,21.90
2018-02-05T05:24:37.861Z,22.10
2018-02-05T05:25:37.874Z,22.80
2018-02-05T05:26:37.938Z,22.70
2018-02-05T05:27:37.901Z,22.60
2018-02-05T05:28:37.916Z,23.90
2018-02-05T05:29:37.930Z,22.70
2018-02-05T05:30:37.945Z,24.30
2018-02-05T05:31:37.956Z,24.80
2018-02-05T05:32:37.971Z,22.80
2018-02-05T05:33:37.985Z,22.90
2018-02-05T05:34:38.000Z,21.10
2018-02-05T05:35:38.013Z,22.60
2018-02-05T05:36:38.028Z,24.70
2018-02-05T05:37:38.042Z,22.60
2018-02-05T05:38:38.206Z,22.80
2018-02-05T05:39:38.070Z,25.00
2018-02-05T05:40:38.084Z,24.00
2018-02-05T05:41:38.097Z,23.10
2018-02-05T05:42:38.112Z,24.10
2018-02-05T05:43:38.126Z,23.70
2018-02-05T05:44:38.140Z,23.30
2018-02-05T05:45:38.154Z,22.70
2018-02-05T05:46:38.168Z,23.20
2018-02-05T05:47:38.182Z,23.60
2018-02-05T05:48:38.205Z,22.90
2018-02-05T05:49:38.259Z,22.20
2018-02-05T05:50:38.224Z,23.50
2018-02-05T05:51:38.237Z,23.60
2018-02-05T05:52:38.252Z,23.90
2018-02-05T05:53:38.266Z,23.90
2018-02-05T05:54:38.279Z,22.70
2018-02-05T05:55:38.293Z,24.20
2018-02-05T05:56:38.308Z,23.10
2018-02-05T05:57:38.320Z,23.70
2018-02-05T05:58:38.336Z,24.70
2018-02-05T05:59:38.349Z,22.00
2018-02-05T06:00:38.421Z,23.10
2018-02-05T06:01:38.428Z,25.10
2018-02-05T06:02:38.392Z,23.80
2018-02-05T06:03:38.405Z,22.50
2018-02-05T06:04:38.420Z,23.00
2018-02-05T06:05:38.435Z,23.40
2018-02-05T06:06:38.499Z,22.10
2018-02-05T06:07:38.473Z,24.80
2018-02-05T06:08:38.476Z,23.20
2018-02-05T06:09:38.490Z,22.90
2018-02-05T06:10:38.505Z,24.20
2018-02-05T06:11:38.518Z,24.60
2018-02-05T06:12:38.532Z,25.60
2018-02-05T06:13:38.547Z,23.60
2018-02-05T06:14:38.565Z,24.20
2018-02-05T06:15:38.574Z,24.70
2018-02-05T06:16:38.588Z,23.30
2018-02-05T06:17:38.603Z,24.50
2018-02-05T06:18:38.717Z,24.90
2018-02-05T06:19:38.630Z,23.40
2018-02-05T06:20:38.644Z,25.70
2018-02-05T06:21:38.659Z,25.50
2018-02-05T06:22:38.677Z,24.90
2018-02-05T06:23:38.687Z,26.30
2018-02-05T06:24:38.701Z,23.50
2018-02-05T06:25:38.716Z,24.30
2018-02-05T06:26:38.730Z,25.00
2018-02-05T06:27:38.743Z,25.90
2018-02-05T06:28:38.807Z,25.10
2018-02-05T06:29:38.776Z,25.80
2018-02-05T06:30:38.786Z,25.40
2018-02-05T06:31:38.799Z,25.50
2018-02-05T06:32:38.812Z,25.00
2018-02-05T06:33:38.831Z,25.70
2018-02-05T06:34:38.842Z,25.60
2018-02-05T06:35:38.856Z,26.20
2018-02-05T06:36:38.870Z,27.20
2018-02-05T06:37:38.885Z,26.90
2018-02-05T06:38:38.899Z,25.10
2018-02-05T06:39:38.912Z,23.90
2018-02-05T06:40:38.972Z,26.40
2018-02-05T06:41:38.940Z,27.40
2018-02-05T06:42:39.056Z,27.00
2018-02-05T06:43:38.969Z,25.40
2018-02-05T06:44:38.985Z,26.60
2018-02-05T06:45:38.997Z,25.80
2018-02-05T06:46:39.011Z,26.10
2018-02-05T06:47:39.025Z,25.50
2018-02-05T06:48:39.040Z,26.10
2018-02-05T06:49:39.054Z,25.10
2018-02-05T06:50:39.068Z,28.50
2018-02-05T06:51:39.082Z,25.90
2018-02-05T06:52:39.096Z,24.90
2018-02-05T06:53:39.110Z,26.60
2018-02-05T06:54:39.124Z,27.70
2018-02-05T06:55:39.240Z,26.30
2018-02-05T06:56:39.151Z,27.00
2018-02-05T06:57:39.167Z,25.50
2018-02-05T06:58:39.181Z,25.70
2018-02-05T06:59:39.194Z,25.80
2018-02-05T07:00:39.260Z,26.00
2018-02-05T07:01:39.223Z,26.70
2018-02-05T07:02:39.237Z,27.60
2018-02-05T07:03:39.251Z,26.60
2018-02-05T07:04:39.266Z,25.10
2018-02-05T07:05:39.281Z,26.10
2018-02-05T07:06:39.294Z,25.20
2018-02-05T07:07:39.309Z,27.40
2018-02-05T07:08:39.321Z,26.50
2018-02-05T07:09:39.338Z,26.00
2018-02-05T07:10:39.351Z,26.70
2018-02-05T07:11:39.366Z,25.10
2018-02-05T07:12:39.378Z,27.40
2018-02-05T07:13:39.393Z,25.70
2018-02-05T07:14:39.407Z,28.10
2018-02-05T07:15:39.421Z,26.90
2018-02-05T07:16:39.435Z,26.10
2018-02-05T07:17:39.599Z,27.40
2018-02-05T07:18:39.464Z,26.40
2018-02-05T07:19:39.477Z,25.30
2018-02-05T07:20:39.492Z,27.20
2018-02-05T07:21:39.507Z,25.70
2018-02-05T07:22:39.522Z,25.50
2018-02-05T07:23:39.535Z,26.30
2018-02-05T07:24:39.549Z,26.90
2018-02-05T07:25:39.564Z,28.50
2018-02-05T07:26:39.578Z,25.60
2018-02-05T07:27:39.591Z,26.00
2018-02-05T07:28:39.606Z,27.90
2018-02-05T07:29:39.621Z,26.70
2018-02-05T07:30:39.635Z,25.40
2018-02-05T07:31:39.649Z,27.30
2018-02-05T07:32:39.663Z,26.00
2018-02-05T07:33:39.677Z,25.90
2018-02-05T07:34:39.692Z,26.50
2018-02-05T07:35:39.705Z,26.10
2018-02-05T07:36:39.719Z,26.20
2018-02-05T07:37:39.734Z,27.00
2018-02-05T07:38:39.749Z,25.70
2018-02-05T07:39:39.762Z,24.10
2018-02-05T07:40:39.776Z,26.10
2018-02-05T07:41:39.790Z,25.20
2018-02-05T07:42:39.805Z,25.20
2018-02-05T07:43:39.918Z,25.20
2018-02-05T07:44:39.869Z,24.10
2018-02-05T07:45:39.847Z,23.80
2018-02-05T07:46:39.864Z,23.90
2018-02-05T07:47:39.875Z,24.20
2018-02-05T07:48:39.941Z,25.70
2018-02-05T07:49:39.903Z,23.60
2018-02-05T07:50:39.918Z,24.50
2018-02-05T07:51:39.932Z,23.90
2018-02-05T07:52:39.946Z,24.20
2018-02-05T07:53:39.960Z,23.60
2018-02-05T07:54:39.975Z,22.70
2018-02-05T07:55:39.989Z,22.90
2018-02-05T07:56:40.003Z,23.50
2018-02-05T07:57:40.018Z,23.30
2018-02-05T07:58:40.032Z,21.10
2018-02-05T07:59:40.044Z,22.50
2018-02-05T08:00:40.059Z,22.10
2018-02-05T08:01:40.073Z,21.90
2018-02-05T08:02:40.088Z,22.10
2018-02-05T08:03:40.105Z,22.60
2018-02-05T08:04:40.115Z,22.80
2018-02-05T08:05:40.128Z,21.60
2018-02-05T08:06:40.145Z,22.50
2018-02-05T08:07:40.157Z,21.80
2018-02-05T08:08:40.171Z,22.00
2018-02-05T08:09:40.186Z,22.40
2018-02-05T08:10:40.201Z,21.80
2018-02-05T08:11:40.217Z,22.40
2018-02-05T08:12:40.228Z,20.50
2018-02-05T08:13:40.245Z,19.90
2018-02-05T08:14:40.261Z,21.90
2018-02-05T08:15:40.272Z,20.70
2018-02-05T08:16:40.285Z,22.20
2018-02-05T08:17:40.300Z,22.10
2018-02-05T08:18:40.316Z,20.80
2018-02-05T08:19:40.327Z,22.30
2018-02-05T08:20:40.344Z,22.40
2018-02-05T08:21:40.355Z,21.50
2018-02-05T08:22:40.371Z,22.90
2018-02-05T08:23:40.384Z,21.90
2018-02-05T08:24:40.398Z,21.00
2018-02-05T08:25:40.414Z,21.80
2018-02-05T08:26:40.437Z,21.10
2018-02-05T08:27:40.441Z,23.70
2018-02-05T08:28:40.455Z,22.60
2018-02-05T08:29:40.623Z,22.10
2018-02-05T08:30:40.484Z,22.50
2018-02-05T08:31:40.498Z,22.90
2018-02-05T08:32:40.513Z,22.10
2018-02-05T08:33:40.527Z,22.60
2018-02-05T08:34:40.543Z,22.20
2018-02-05T08:35:40.555Z,22.80
2018-02-05T08:36:40.721Z,23.20
2018-02-05T08:37:40.584Z,23.80
2018-02-05T08:38:40.602Z,25.00
2018-02-05T08:39:40.613Z,22.40
2018-02-05T08:40:40.628Z,23.30
2018-02-05T08:41:40.641Z,22.30
2018-02-05T08:42:40.658Z,25.20
2018-02-05T08:43:40.670Z,22.90
2018-02-05T08:44:40.686Z,24.30
2018-02-05T08:45:40.699Z,22.10
2018-02-05T08:46:40.714Z,23.10
2018-02-05T08:47:40.732Z,25.90
2018-02-05T08:48:40.745Z,23.20
2018-02-05T08:49:40.757Z,23.20
2018-02-05T08:50:40.872Z,23.30
2018-02-05T08:51:40.785Z,23.10
2018-02-05T08:52:40.800Z,24.60
2018-02-05T08:53:40.815Z,22.80
2018-02-05T08:54:40.882Z,23.10
2018-02-05T08:55:40.878Z,23.60
2018-02-05T08:56:40.858Z,25.30
2018-02-05T08:57:40.872Z,24.30
2018-02-05T08:58:40.887Z,24.20
2018-02-05T08:59:40.925Z,24.40
2018-02-05T09:00:40.916Z,22.00
2018-02-05T09:01:40.930Z,24.30
2018-02-05T09:02:40.945Z,25.00
2018-02-05T09:03:40.960Z,24.70
2018-02-05T09:04:40.974Z,25.20
2018-02-05T09:05:40.989Z,25.60
2018-02-05T09:06:41.004Z,24.80
2018-02-05T09:07:41.017Z,24.70
2018-02-05T09:08:41.032Z,23.60
2018-02-05T09:09:41.046Z,22.90
2018-02-05T09:10:41.064Z,24.60
2018-02-05T09:11:41.076Z,24.30
2018-02-05T09:12:41.091Z,24.50
2018-02-05T09:13:41.105Z,23.90
2018-02-05T09:14:41.123Z,24.20
2018-02-05T09:15:41.185Z,24.30
2018-02-05T09:16:41.155Z,23.70
2018-02-05T09:17:41.164Z,25.00
2018-02-05T09:18:41.179Z,23.60
2018-02-05T09:19:41.227Z,24.20
2018-02-05T09:20:41.459Z,24.20
2018-02-05T09:21:41.222Z,24.10
2018-02-05T09:22:41.239Z,23.00
2018-02-05T09:23:41.254Z,23.70
2018-02-05T09:24:41.268Z,25.20
2018-02-05T09:25:41.284Z,25.50
2018-02-05T09:26:41.296Z,25.70
2018-02-05T09:27:41.310Z,24.90
2018-02-05T09:28:41.339Z,25.20
2018-02-05T09:29:41.339Z,24.70
2018-02-05T09:30:41.356Z,24.10
2018-02-05T09:31:41.377Z,24.40
2018-02-05T09:32:41.384Z,25.60
2018-02-05T09:33:41.399Z,25.90
2018-02-05T09:34:41.413Z,24.30
2018-02-05T09:35:41.427Z,23.50
2018-02-05T09:36:41.443Z,25.20
2018-02-05T09:37:41.459Z,24.20
2018-02-05T09:38:41.472Z,25.30
2018-02-05T09:39:41.587Z,24.70
2018-02-05T09:40:41.526Z,25.90
2018-02-05T09:41:41.516Z,25.30
2018-02-05T09:42:41.532Z,24.40
2018-02-05T09:43:41.546Z,25.00
2018-02-05T09:44:41.561Z,24.10
2018-02-05T09:45:41.576Z,25.00
2018-02-05T09:46:41.591Z,23.80
2018-02-05T09:47:41.607Z,24.60
2018-02-05T09:48:41.621Z,24.70
2018-02-05T09:49:41.640Z,25.00
2018-02-05T09:50:41.652Z,23.00
2018-02-05T09:51:41.719Z,24.80
2018-02-05T09:52:41.681Z,25.20
2018-02-05T09:53:41.695Z,24.60
2018-02-05T09:54:41.734Z,24.90
2018-02-05T09:55:41.754Z,24.30
2018-02-05T09:56:41.808Z,24.40
2018-02-05T09:57:41.816Z,24.40
2018-02-05T09:58:41.844Z,25.10
2018-02-05T09:59:41.785Z,22.00
2018-02-05T10:00:41.803Z,24.60
2018-02-05T10:01:41.983Z,25.40
2018-02-05T10:02:41.837Z,25.90
2018-02-05T10:03:41.853Z,26.40
2018-02-05T10:04:41.923Z,24.80
2018-02-05T10:05:41.874Z,23.50
2018-02-05T10:06:42.027Z,24.90
2018-02-05T10:07:41.907Z,25.30
2018-02-05T10:08:41.993Z,24.40
2018-02-05T10:09:42.093Z,24.50
2018-02-05T10:10:41.956Z,24.70
2018-02-05T10:11:42.074Z,24.60
2018-02-05T10:12:41.987Z,25.80
2018-02-05T10:13:42.004Z,25.80
2018-02-05T10:14:42.011Z,25.20
2018-02-05T10:15:42.052Z,26.70
2018-02-05T10:16:42.052Z,25.60
2018-02-05T10:17:42.053Z,26.50
2018-02-05T10:18:42.068Z,25.80
2018-02-05T10:19:42.082Z,26.00
2018-02-05T10:20:42.098Z,25.70
2018-02-05T10:21:42.112Z,25.10
2018-02-05T10:22:42.177Z,25.30
2018-02-05T10:23:42.143Z,25.70
2018-02-05T10:24:42.156Z,27.30
2018-02-05T10:25:42.171Z,25.10
2018-02-05T10:26:42.187Z,26.20
2018-02-05T10:27:42.200Z,26.80
2018-02-05T10:28:42.215Z,25.40
2018-02-05T10:29:42.230Z,26.00
2018-02-05T10:30:42.246Z,24.50
2018-02-05T10:31:42.260Z,27.90
2018-02-05T10:32:42.275Z,26.20
2018-02-05T10:33:42.290Z,24.80
2018-02-05T10:34:42.305Z,24.20
2018-02-05T10:35:42.320Z,24.60
2018-02-05T10:36:42.334Z,26.00
2018-02-05T10:37:42.349Z,27.20
2018-02-05T10:38:42.364Z,26.50
2018-02-05T10:39:42.418Z,25.20
2018-02-05T10:40:42.393Z,27.40
2018-02-05T10:41:42.408Z,26.20
2018-02-05T10:42:42.423Z,24.00
2018-02-05T10:43:42.437Z,26.20
2018-02-05T10:44:42.452Z,26.30
2018-02-05T10:45:42.467Z,25.10
2018-02-05T10:46:42.483Z,30.20
2018-02-05T10:47:42.496Z,32.40
2018-02-05T10:48:42.514Z,32.40
2018-02-05T10:49:42.527Z,32.20
2018-02-05T10:50:42.542Z,30.30
2018-02-05T10:51:42.556Z,31.30
2018-02-05T10:52:42.571Z,31.50
2018-02-05T10:53:42.587Z,25.70
2018-02-05T10:54:42.601Z,25.70
2018-02-05T10:55:42.616Z,25.60
2018-02-05T10:56:42.631Z,26.50
2018-02-05T10:57:42.646Z,24.90
2018-02-05T10:58:42.661Z,26.00
2018-02-05T10:59:42.676Z,26.00
2018-02-05T11:00:42.691Z,26.10
2018-02-05T11:01:42.707Z,26.20
2018-02-05T11:02:42.721Z,25.60
2018-02-05T11:03:42.741Z,24.10
2018-02-05T11:04:42.751Z,24.30
2018-02-05T11:05:42.766Z,26.80
2018-02-05T11:06:42.781Z,23.80
2018-02-05T11:07:42.795Z,24.90
2018-02-05T11:08:42.811Z,23.60
2018-02-05T11:09:42.826Z,23.90
2018-02-05T11:10:42.842Z,22.80
2018-02-05T11:11:42.856Z,24.40
2018-02-05T11:12:42.871Z,23.30
2018-02-05T11:13:43.037Z,24.40
2018-02-05T11:14:42.902Z,24.30
2018-02-05T11:15:42.917Z,24.90
2018-02-05T11:16:42.931Z,25.10
2018-02-05T11:17:42.947Z,23.30
2018-02-05T11:18:42.962Z,24.10
2018-02-05T11:19:42.977Z,22.70
2018-02-05T11:20:42.991Z,22.30
2018-02-05T11:21:43.008Z,22.50
2018-02-05T11:22:43.023Z,23.80
2018-02-05T11:23:43.038Z,23.20
2018-02-05T11:24:43.055Z,21.50
2018-02-05T11:25:43.069Z,23.40
2018-02-05T11:26:43.084Z,23.60
2018-02-05T11:27:43.099Z,23.00
2018-02-05T11:28:43.113Z,22.20
2018-02-05T11:29:43.131Z,22.50
2018-02-05T11:30:43.144Z,23.10
2018-02-05T11:31:43.160Z,22.60
2018-02-05T11:32:43.174Z,21.20
2018-02-05T11:33:43.189Z,22.60
2018-02-05T11:34:43.206Z,22.40
2018-02-05T11:35:43.219Z,23.00
2018-02-05T11:36:43.235Z,24.90
2018-02-05T11:37:43.251Z,22.90
2018-02-05T11:38:43.315Z,23.00
2018-02-05T11:39:43.280Z,22.00
2018-02-05T11:40:43.295Z,23.40
2018-02-05T11:41:43.310Z,21.90
2018-02-05T11:42:43.326Z,21.80
2018-02-05T11:43:43.346Z,21.60
2018-02-05T11:44:43.354Z,22.50
2018-02-05T11:45:43.371Z,23.20
2018-02-05T11:46:43.385Z,23.00
2018-02-05T11:47:43.400Z,24.00
2018-02-05T11:48:43.416Z,22.90
2018-02-05T11:49:43.433Z,22.60
2018-02-05T11:50:43.448Z,21.70
2018-02-05T11:51:43.518Z,22.30
2018-02-05T11:52:43.776Z,22.10
2018-02-05T11:53:43.491Z,22.20
2018-02-05T11:54:43.506Z,22.20
2018-02-05T11:55:43.520Z,22.10
2018-02-05T11:56:43.538Z,23.00
2018-02-05T11:57:43.551Z,21.90
2018-02-05T11:58:43.567Z,21.90
2018-02-05T11:59:43.657Z,22.00
2018-02-05T12:00:43.596Z,22.20
2018-02-05T12:01:43.613Z,20.70
2018-02-05T12:02:43.628Z,21.90
2018-02-05T12:03:43.641Z,21.10
2018-02-05T12:04:43.662Z,21.70
2018-02-05T12:05:43.672Z,21.60
2018-02-05T12:06:43.694Z,21.10
2018-02-05T12:07:43.702Z,21.60
2018-02-05T12:08:43.717Z,21.40
2018-02-05T12:09:43.732Z,21.00
2018-02-05T12:10:43.748Z,20.20
2018-02-05T12:11:43.764Z,21.30
2018-02-05T12:12:43.786Z,19.40
2018-02-05T12:13:43.798Z,21.50
2018-02-05T12:14:43.849Z,20.30
2018-02-05T12:15:43.856Z,19.50
2018-02-05T12:16:43.981Z,20.70
2018-02-05T12:17:43.854Z,20.90
2018-02-05T12:18:43.875Z,19.80
2018-02-05T12:19:44.320Z,19.50
2018-02-05T12:20:43.965Z,19.90
2018-02-05T12:21:44.092Z,18.70
2018-02-05T12:22:44.150Z,20.50
2018-02-05T12:23:44.120Z,18.80
2018-02-05T12:24:44.021Z,18.90
2018-02-05T12:25:44.023Z,19.50
2018-02-05T12:26:44.090Z,18.60
2018-02-05T12:27:44.005Z,17.80
2018-02-05T12:28:44.033Z,17.30
2018-02-05T12:29:44.093Z,17.00
2018-02-05T12:30:44.051Z,16.80
2018-02-05T12:31:44.679Z,18.30
2018-02-05T12:32:44.080Z,18.70
2018-02-05T12:33:44.112Z,17.80
2018-02-05T12:34:44.111Z,18.20
2018-02-05T12:35:44.125Z,18.00
2018-02-05T12:36:44.140Z,19.40
2018-02-05T12:37:44.156Z,18.00
2018-02-05T12:38:44.171Z,18.50
2018-02-05T12:39:44.185Z,17.90
2018-02-05T12:40:44.200Z,18.60
2018-02-05T12:41:44.216Z,17.40
2018-02-05T12:42:44.232Z,18.90
2018-02-05T12:43:44.248Z,17.50
2018-02-05T12:44:44.260Z,18.20
2018-02-05T12:45:44.278Z,18.50
2018-02-05T12:46:44.292Z,18.10
2018-02-05T12:47:44.307Z,17.00
2018-02-05T12:48:44.321Z,17.10
2018-02-05T12:49:44.338Z,17.70
2018-02-05T12:50:44.351Z,17.90
2018-02-05T12:51:44.366Z,16.00
2018-02-05T12:52:44.382Z,18.50